Time;durP1;ratioP1;P1;durP2;ratioP2;P2;SDS_P1;SDS_P2;PMS_P1;PMS_P2;Temp;Humidity;BMP_temperature;BMP_pressure;BME280_temperature;BME280_humidity;BME280_pressure;Samples;Min_cycle;Max_cycle;Signal;HPM_P1;HPM_P2
2023/04/10 00:00:37;;;;;;;62.72;34.53;;;6.70;99.90;;;-144.05;53.18;56923.19;5056105;28;20036;-82
2023/04/10 00:03:03;;;;;;;60.40;34.25;;;6.70;99.90;;;-144.05;53.47;56965.66;5038032;28;20036;-82
2023/04/10 00:05:29;;;;;;;53.17;29.52;;;6.70;99.90;;;-144.05;53.29;56972.03;5054999;28;20094;-81
2023/04/10 00:07:57;;;;;;;51.58;29.33;;;6.50;99.90;;;-144.05;53.81;56950.78;5064556;28;20029;-79
2023/04/10 00:10:40;;;;;;;54.38;30.25;;;6.40;99.90;;;-144.05;54.03;56923.19;5057977;28;20040;-82
2023/04/10 00:13:06;;;;;;;54.38;30.50;;;6.30;99.90;;;-144.05;54.26;56923.19;5057591;28;20056;-80
2023/04/10 00:15:32;;;;;;;62.65;33.22;;;6.30;99.90;;;-144.05;54.13;56967.78;5039783;28;20033;-80
2023/04/10 00:17:58;;;;;;;64.78;36.35;;;6.20;99.90;;;-144.05;54.73;56940.16;5057185;28;20592;-80
2023/04/10 00:20:25;;;;;;;58.70;32.92;;;6.20;99.90;;;-144.05;54.63;56946.53;5039689;28;20127;-80
2023/04/10 00:22:51;;;;;;;66.03;37.20;;;6.20;99.90;;;-144.05;54.78;56950.78;5057264;28;20021;-79
2023/04/10 00:25:17;;;;;;;67.30;37.03;;;6.30;99.90;;;-144.05;54.25;56955.03;5038329;28;20025;-82
2023/04/10 00:27:43;;;;;;;69.53;37.60;;;6.30;99.90;;;-144.05;54.62;56946.53;5060173;28;20056;-80
2023/04/10 00:30:10;;;;;;;66.25;39.15;;;6.20;99.90;;;-144.05;54.95;56957.16;5039707;28;20497;-82
2023/04/10 00:32:37;;;;;;;71.80;40.25;;;6.20;99.90;;;-144.05;54.67;56950.78;5061549;28;20025;-82
2023/04/10 00:35:03;;;;;;;79.20;42.45;;;6.30;99.90;;;-144.05;54.77;56955.03;5042144;28;20021;-82
2023/04/10 00:37:29;;;;;;;76.60;40.55;;;6.40;99.90;;;-144.05;54.26;56938.03;5041845;28;20066;-82
2023/04/10 00:39:55;;;;;;;78.30;43.95;;;6.40;99.90;;;-144.05;54.42;56974.16;5060254;28;20021;-80
2023/04/10 00:42:21;;;;;;;78.93;43.65;;;6.40;99.90;;;-144.05;54.64;56946.53;5042126;28;20460;-83
2023/04/10 00:44:46;;;;;;;81.28;44.28;;;6.40;99.90;;;-144.05;54.69;56950.78;5064987;28;20033;-83
2023/04/10 00:47:14;;;;;;;83.18;44.75;;;6.40;99.90;;;-144.05;54.45;56925.28;5060162;28;20041;-82
2023/04/10 00:49:41;;;;;;;92.65;47.80;;;6.30;99.90;;;-144.05;54.89;56950.78;5059963;28;20029;-80
2023/04/10 00:52:09;;;;;;;90.20;47.85;;;6.40;99.90;;;-144.05;54.84;56938.03;5042134;28;20039;-82
2023/04/10 00:54:35;;;;;;;86.18;46.13;;;6.30;99.90;;;-144.05;54.81;56961.41;5041503;28;20025;-83
2023/04/10 00:57:05;;;;;;;89.53;48.83;;;6.40;99.90;;;-144.05;54.96;56952.91;5058427;28;20033;-82
2023/04/10 00:59:31;;;;;;;90.88;47.50;;;6.30;99.90;;;-144.05;54.97;56935.91;5041064;28;20056;-84
2023/04/10 01:01:58;;;;;;;95.47;49.08;;;6.40;99.90;;;-144.05;55.48;56952.91;5059901;28;20025;-82
2023/04/10 01:04:27;;;;;;;96.75;51.60;;;6.40;99.90;;;-144.05;55.09;56942.28;5060011;28;20033;-81
2023/04/10 01:07:26;;;;;;;96.50;50.92;;;6.40;99.90;;;-144.05;54.81;56955.03;5060727;28;20383;-82
2023/04/10 01:10:43;;;;;;;101.10;50.40;;;6.40;99.90;;;-144.05;55.13;56944.41;5043279;28;20037;-82
2023/04/10 01:13:48;;;;;;;99.10;50.00;;;6.40;99.90;;;-144.05;55.03;56940.16;5063633;28;20029;-83
2023/04/10 01:16:57;;;;;;;96.88;51.25;;;6.40;99.90;;;-144.05;54.59;56955.03;5061244;28;20535;-81
2023/04/10 01:20:09;;;;;;;95.55;50.35;;;6.40;99.90;;;-144.05;55.08;56955.03;5058908;28;20158;-79
2023/04/10 01:23:31;;;;;;;91.45;49.33;;;6.40;99.90;;;-144.05;55.23;56925.28;5056239;28;20082;-79
2023/04/10 01:26:16;;;;;;;94.57;50.47;;;6.30;99.90;;;-144.05;55.65;56935.91;5056172;28;20036;-80
2023/04/10 01:29:10;;;;;;;99.40;50.50;;;6.30;99.90;;;-144.05;55.17;56950.78;5042943;28;20036;-80
2023/04/10 01:32:01;;;;;;;94.85;49.92;;;6.30;99.90;;;-144.05;55.17;56942.28;5040441;28;20378;-81
2023/04/10 01:34:53;;;;;;;102.30;50.50;;;6.30;99.90;;;-144.05;54.63;56946.53;5041485;28;20116;-81
2023/04/10 01:37:33;;;;;;;92.07;50.15;;;6.30;99.90;;;-144.05;54.63;56923.19;5041183;28;20063;-82
2023/04/10 01:40:05;;;;;;;94.88;48.47;;;6.30;99.90;;;-144.05;55.35;56959.28;5058702;28;20021;-80
2023/04/10 01:42:58;;;;;;;90.80;47.33;;;6.30;99.90;;;-144.05;55.69;56923.19;5059273;28;20021;-82
2023/04/10 01:45:27;;;;;;;91.38;47.13;;;6.20;99.90;;;-144.05;55.41;56940.16;5058864;28;20029;-78
2023/04/10 01:47:55;;;;;;;91.85;50.58;;;6.20;99.90;;;-144.05;55.36;56931.66;5058728;28;20036;-80
2023/04/10 01:50:23;;;;;;;93.70;48.92;;;6.20;99.90;;;-144.05;55.64;56942.28;5059313;28;20045;-80
2023/04/10 01:52:53;;;;;;;87.78;46.92;;;6.10;99.90;;;-144.05;55.75;56957.16;5040545;28;20024;-81
2023/04/10 01:55:22;;;;;;;88.57;45.83;;;6.10;99.90;;;-144.05;56.09;56942.28;5059378;28;20024;-82
2023/04/10 01:57:49;;;;;;;91.15;46.03;;;6.10;99.90;;;-144.05;55.67;56935.91;5059447;28;20029;-81
2023/04/10 02:00:16;;;;;;;80.88;42.22;;;6.30;99.90;;;-144.05;55.18;56931.66;5041821;28;20029;-82
2023/04/10 02:02:43;;;;;;;73.47;39.88;;;6.40;99.90;;;-144.05;54.28;56942.28;5060478;28;20086;-82
2023/04/10 02:05:09;;;;;;;77.32;39.97;;;6.50;99.90;;;-144.05;53.96;56931.66;5060135;28;20028;-82
2023/04/10 02:08:08;;;;;;;73.47;38.15;;;6.60;99.90;;;-144.05;53.75;56935.91;5058761;28;20052;-81
2023/04/10 02:11:02;;;;;;;66.78;36.92;;;6.60;99.90;;;-144.05;54.03;56933.78;5063686;28;20036;-81
2023/04/10 02:13:34;;;;;;;69.97;36.15;;;6.60;99.90;;;-144.05;53.70;56946.53;5045073;28;20032;-80
2023/04/10 02:16:07;;;;;;;62.67;32.67;;;6.60;99.90;;;-144.05;53.80;56959.28;5060652;28;20041;-79
2023/04/10 02:18:37;;;;;;;58.75;33.28;;;6.70;99.90;;;-144.05;53.13;56935.91;5041938;28;20029;-82
2023/04/10 02:21:04;;;;;;;57.47;31.45;;;6.80;99.90;;;-144.05;53.17;56965.66;5060997;28;20032;-79
2023/04/10 02:23:29;;;;;;;58.55;31.70;;;6.80;99.90;;;-144.05;52.61;56955.03;5058505;28;20021;-81
2023/04/10 02:25:56;;;;;;;53.92;29.92;;;6.90;99.90;;;-144.05;52.62;56921.06;5059948;28;20040;-81
2023/04/10 02:28:22;;;;;;;55.70;30.17;;;6.90;99.90;;;-144.05;52.34;56946.53;5041404;28;20512;-81
2023/04/10 02:30:48;;;;;;;54.28;30.08;;;6.90;99.90;;;-144.05;52.49;56933.78;5057138;28;20484;-81
2023/04/10 02:33:14;;;;;;;48.10;29.33;;;6.90;99.90;;;-144.05;52.60;56942.28;5039385;28;20060;-83
2023/04/10 02:35:39;;;;;;;54.72;30.55;;;6.80;99.90;;;-144.05;52.62;56944.41;5059928;28;20082;-82
2023/04/10 02:38:06;;;;;;;52.58;29.15;;;6.80;99.90;;;-144.05;52.60;56921.06;5043287;28;20041;-82
2023/04/10 02:40:32;;;;;;;52.92;30.27;;;6.70;99.90;;;-144.05;52.34;56959.28;5060371;28;20362;-81
2023/04/10 02:42:57;;;;;;;55.53;30.58;;;6.70;99.90;;;-144.05;52.27;56929.53;5062147;28;20096;-81
2023/04/10 02:45:23;;;;;;;57.90;31.98;;;6.70;99.90;;;-144.05;52.30;56933.78;5074183;28;20036;-79
2023/04/10 02:47:49;;;;;;;54.22;31.42;;;6.80;99.90;;;-144.05;52.62;56923.19;5056549;28;20064;-82
2023/04/10 02:50:16;;;;;;;56.50;31.33;;;6.70;99.90;;;-144.05;52.99;56952.91;5039183;28;20033;-81
2023/04/10 02:52:43;;;;;;;54.63;30.20;;;6.70;99.90;;;-144.05;52.01;56925.28;5057845;28;20054;-82
2023/04/10 02:55:10;;;;;;;54.05;29.95;;;6.70;99.90;;;-144.05;51.85;56935.91;5039728;28;20105;-81
2023/04/10 02:57:36;;;;;;;51.92;29.30;;;6.70;99.90;;;-144.05;51.97;56929.53;5038335;28;20088;-82
2023/04/10 03:00:04;;;;;;;51.22;28.55;;;6.70;99.90;;;-144.05;51.62;56950.78;5055772;28;20025;-79
2023/04/10 03:02:30;;;;;;;51.97;30.15;;;6.70;99.90;;;-144.05;51.81;56976.28;5056340;28;20111;-81
2023/04/10 03:04:56;;;;;;;56.45;30.63;;;6.60;99.90;;;-144.05;52.09;56944.41;5052113;28;20025;-81
2023/04/10 03:07:22;;;;;;;54.10;31.88;;;6.50;99.90;;;-144.05;52.26;56950.78;5035487;28;20028;-82
2023/04/10 03:09:48;;;;;;;58.85;30.45;;;6.50;99.90;;;-144.05;52.64;56967.78;5053689;28;20029;-81
2023/04/10 03:12:14;;;;;;;56.45;30.38;;;6.40;99.90;;;-144.05;52.89;56976.28;5035557;28;20175;-80
2023/04/10 03:14:40;;;;;;;60.35;31.95;;;6.30;99.90;;;-144.05;53.32;56927.41;5053863;28;20064;-81
2023/04/10 03:17:06;;;;;;;55.72;30.70;;;6.30;99.90;;;-144.05;53.54;56935.91;5036157;28;20025;-79
2023/04/10 03:19:32;;;;;;;57.45;30.85;;;6.30;99.90;;;-144.05;53.54;56946.53;5054544;28;20422;-82
2023/04/10 03:21:57;;;;;;;56.38;31.25;;;6.30;99.90;;;-144.05;53.48;56948.66;5054218;28;20449;-82
2023/04/10 03:24:23;;;;;;;56.30;31.75;;;6.40;99.90;;;-144.05;53.17;56942.28;5053751;28;20124;-83
2023/04/10 03:26:50;;;;;;;54.22;30.33;;;6.40;99.90;;;-144.05;53.64;56927.41;5054956;28;20036;-82
2023/04/10 03:29:17;;;;;;;51.30;28.92;;;6.50;99.90;;;-144.05;52.87;56946.53;5054792;28;20382;-81
2023/04/10 03:31:44;;;;;;;49.85;29.40;;;6.50;99.90;;;-144.05;52.87;56925.28;5055189;28;20032;-83
2023/04/10 03:34:10;;;;;;;53.53;28.75;;;6.40;99.90;;;-144.05;53.09;56946.53;5036949;28;20061;-81
2023/04/10 03:36:36;;;;;;;57.65;29.95;;;6.40;99.90;;;-144.05;53.06;56955.03;5055915;28;20032;-84
2023/04/10 03:39:02;;;;;;;57.22;29.77;;;6.30;99.90;;;-144.05;53.30;56944.41;5037543;28;20296;-84
2023/04/10 03:41:27;;;;;;;53.72;30.30;;;6.30;99.90;;;-144.05;53.41;56935.91;5055650;28;20020;-83
2023/04/10 03:43:53;;;;;;;52.42;30.20;;;6.30;99.90;;;-144.05;53.20;56944.41;5038184;28;20025;-83
2023/04/10 03:46:19;;;;;;;55.00;30.20;;;6.30;99.90;;;-144.05;53.01;56944.41;5056611;28;20433;-82
2023/04/10 03:48:45;;;;;;;55.28;30.75;;;6.20;99.90;;;-144.05;53.30;56946.53;5056782;28;20053;-82
2023/04/10 03:51:11;;;;;;;57.53;30.88;;;6.00;99.90;;;-144.05;53.87;56957.16;5038697;28;20122;-82
2023/04/10 03:53:39;;;;;;;52.85;30.05;;;5.90;99.90;;;-144.05;54.08;56944.41;5056678;28;20059;-81
2023/04/10 03:56:07;;;;;;;50.58;28.00;;;5.80;99.90;;;-144.05;54.29;56944.41;5038768;28;20051;-79
2023/04/10 03:58:33;;;;;;;56.72;31.23;;;5.70;99.90;;;-144.05;54.43;56938.03;5055462;28;20396;-79
2023/04/10 04:00:58;;;;;;;65.95;36.60;;;5.60;99.90;;;-144.05;54.91;56972.03;5057125;28;20021;-80
2023/04/10 04:03:24;;;;;;;69.10;37.15;;;5.50;99.90;;;-144.05;55.24;56961.41;5067050;28;20301;-83
2023/04/10 04:05:54;;;;;;;70.53;38.00;;;5.40;99.90;;;-144.05;55.61;56942.28;5067543;28;20036;-83
2023/04/10 04:08:19;;;;;;;74.85;38.80;;;5.30;99.90;;;-144.05;56.32;56957.16;5070858;28;20025;-78
2023/04/10 04:10:45;;;;;;;75.47;39.38;;;5.10;99.90;;;-144.05;56.78;56978.41;5069599;28;20029;-80
2023/04/10 04:13:11;;;;;;;70.40;38.00;;;5.00;99.90;;;-144.05;57.31;56950.78;5040815;28;20029;-81
2023/04/10 04:15:37;;;;;;;70.07;39.25;;;4.90;99.90;;;-144.05;57.84;56957.16;5058204;28;20446;-81
2023/04/10 04:18:04;;;;;;;73.00;38.97;;;4.80;99.90;;;-144.05;58.15;56967.78;5054346;28;20400;-81
2023/04/10 04:20:29;;;;;;;71.97;39.72;;;4.60;99.90;;;-144.05;58.56;56963.53;5056076;28;20033;-80
2023/04/10 04:22:55;;;;;;;74.30;41.35;;;4.50;99.90;;;-144.05;59.22;56955.03;5056082;28;20401;-80
2023/04/10 04:25:22;;;;;;;75.65;40.83;;;4.40;99.90;;;-144.05;59.34;56957.16;5055553;28;20040;-80
2023/04/10 04:27:48;;;;;;;70.65;37.90;;;4.30;99.90;;;-144.05;60.10;56980.53;5056213;28;20032;-81
2023/04/10 04:30:14;;;;;;;81.88;41.97;;;4.20;99.90;;;-144.05;61.97;56959.28;5062146;28;20021;-81
2023/04/10 04:32:40;;;;;;;77.45;38.70;;;4.10;99.90;;;-144.05;61.62;56933.78;5056322;28;20048;-79
2023/04/10 04:35:07;;;;;;;79.40;40.40;;;4.00;99.90;;;-144.05;61.24;56948.66;5056070;28;20032;-79
2023/04/10 04:37:33;;;;;;;74.25;38.65;;;4.00;99.90;;;-144.05;61.92;56963.53;5056369;28;20029;-78
2023/04/10 04:40:00;;;;;;;75.03;39.53;;;3.90;99.90;;;-144.05;62.61;56991.13;5055910;28;20025;-80
2023/04/10 04:42:26;;;;;;;78.85;39.22;;;3.90;99.90;;;-144.05;63.21;56965.66;5056742;28;20039;-79
2023/04/10 04:44:52;;;;;;;76.63;39.17;;;3.90;99.90;;;-144.05;63.28;56948.66;5039047;28;20028;-80
2023/04/10 04:47:18;;;;;;;77.43;41.20;;;3.80;99.90;;;-144.05;63.22;56944.41;5057030;28;20452;-83
2023/04/10 04:49:44;;;;;;;72.20;38.03;;;3.70;99.90;;;-144.05;66.09;56978.41;5056962;28;20371;-81
2023/04/10 04:52:09;;;;;;;73.18;39.22;;;3.70;99.90;;;-144.05;66.13;56963.53;5056438;28;20021;-80
2023/04/10 04:54:35;;;;;;;78.50;40.25;;;3.80;99.90;;;-144.05;66.00;56986.91;5038036;28;20498;-82
2023/04/10 04:57:01;;;;;;;71.07;34.50;;;3.80;99.90;;;-144.05;66.88;56974.16;5038424;28;20515;-82
2023/04/10 04:59:27;;;;;;;68.25;35.58;;;3.90;99.90;;;-144.05;65.87;56965.66;5038290;28;20053;-81
2023/04/10 05:01:53;;;;;;;61.17;33.55;;;4.00;99.90;;;-144.05;65.50;56972.03;5038862;28;20021;-81
2023/04/10 05:04:19;;;;;;;63.13;31.58;;;4.20;99.90;;;-144.05;64.53;56974.16;5055417;28;20096;-81
2023/04/10 05:06:45;;;;;;;59.67;32.88;;;4.40;99.90;;;-144.05;63.90;56974.16;5057198;28;20035;-81
2023/04/10 05:09:11;;;;;;;63.15;32.40;;;4.50;99.90;;;-144.05;63.70;56965.66;5057951;28;20104;-80
2023/04/10 05:11:37;;;;;;;58.08;29.83;;;4.60;99.90;;;-144.05;63.43;56963.53;5049558;28;20040;-80
2023/04/10 05:14:03;;;;;;;53.83;28.90;;;4.60;99.90;;;-144.05;62.89;56963.53;5066227;28;20056;-80
2023/04/10 05:16:29;;;;;;;57.10;30.88;;;4.60;99.90;;;-144.05;63.00;56963.53;5056972;28;20449;-80
2023/04/10 05:18:55;;;;;;;52.95;27.70;;;4.70;99.90;;;-144.05;62.04;56952.91;5057554;28;20020;-79
2023/04/10 05:21:21;;;;;;;58.63;28.48;;;4.70;99.90;;;-144.05;61.75;56914.69;5057274;28;20052;-82
2023/04/10 05:23:47;;;;;;;52.30;27.02;;;4.80;99.90;;;-144.05;61.66;56961.41;5058175;28;20033;-80
2023/04/10 05:26:13;;;;;;;48.53;25.90;;;4.90;99.90;;;-144.05;61.23;56940.16;5058436;28;20032;-83
2023/04/10 05:28:39;;;;;;;49.88;25.95;;;5.00;99.90;;;-144.05;60.89;56925.28;5057790;28;20389;-81
2023/04/10 05:31:05;;;;;;;49.85;27.02;;;5.10;99.90;;;-144.05;60.53;56944.41;5058840;28;20382;-83
2023/04/10 05:33:31;;;;;;;49.05;25.13;;;5.10;99.90;;;-144.05;60.09;56931.66;5059375;28;20053;-81
2023/04/10 05:35:57;;;;;;;44.00;24.02;;;5.20;99.90;;;-144.05;60.01;56929.53;5059401;28;20044;-84
2023/04/10 05:38:38;;;;;;;40.67;22.58;;;5.30;99.90;;;-144.05;59.60;56957.16;5057690;28;20417;-81
2023/04/10 05:41:04;;;;;;;37.75;19.92;;;5.50;99.90;;;-144.05;58.51;56938.03;5057160;28;20030;-81
2023/04/10 05:43:29;;;;;;;36.22;20.48;;;5.70;99.90;;;-144.05;56.97;56946.53;5059576;28;20030;-81
2023/04/10 05:45:55;;;;;;;32.00;18.95;;;6.00;99.90;;;-144.05;55.63;56933.78;5059589;28;20091;-82
2023/04/10 05:48:24;;;;;;;34.88;18.88;;;6.40;99.90;;;-144.05;54.40;56944.41;5041655;28;20024;-83
2023/04/10 05:50:51;;;;;;;34.65;19.38;;;6.70;99.90;;;-144.05;53.55;56916.81;5059710;28;20037;-83
2023/04/10 05:53:20;;;;;;;29.70;18.00;;;6.90;99.90;;;-144.05;52.08;56935.91;5061256;28;20044;-84
2023/04/10 05:55:55;;;;;;;33.88;18.20;;;7.10;99.90;;;-144.05;51.66;56914.69;5061350;28;20339;-83
2023/04/10 05:58:20;;;;;;;31.63;18.53;;;7.30;99.90;;;-144.05;51.28;56925.28;5065004;28;20031;-80
2023/04/10 06:00:46;;;;;;;30.95;17.70;;;7.40;99.90;;;-144.05;50.82;56912.56;5077795;28;20024;-77
2023/04/10 06:03:12;;;;;;;30.88;17.70;;;7.40;99.90;;;-144.05;50.67;56921.06;5061914;28;20037;-80
2023/04/10 06:05:40;;;;;;;30.80;18.10;;;7.50;99.90;;;-144.05;50.51;56923.19;5058427;28;20429;-81
2023/04/10 06:08:06;;;;;;;35.30;18.50;;;7.60;99.90;;;-144.05;50.62;56935.91;5058938;28;20146;-83
2023/04/10 06:10:32;;;;;;;31.15;18.38;;;7.70;99.90;;;-144.05;50.24;56906.19;5058762;28;20082;-83
2023/04/10 06:12:58;;;;;;;34.08;18.35;;;7.90;99.90;;;-144.05;49.37;56925.28;5059488;28;20040;-83
2023/04/10 06:15:24;;;;;;;33.13;18.60;;;8.00;99.90;;;-144.05;48.90;56923.19;5042257;28;20404;-83
2023/04/10 06:17:50;;;;;;;31.60;18.90;;;8.20;99.90;;;-144.05;48.58;56914.69;5060979;28;20381;-83
2023/04/10 06:20:15;;;;;;;30.70;18.27;;;8.40;99.90;;;-144.05;47.21;56929.53;5062958;28;20056;-84
2023/04/10 06:22:41;;;;;;;30.13;17.73;;;8.70;99.90;;;-144.05;46.61;56906.19;5058354;28;20485;-82
2023/04/10 06:25:08;;;;;;;34.15;18.60;;;8.90;99.90;;;-144.05;45.95;56901.94;5058627;28;20037;-82
2023/04/10 06:27:37;;;;;;;29.60;18.35;;;9.20;99.90;;;-144.05;45.03;56921.06;5058218;28;20079;-82
2023/04/10 06:30:04;;;;;;;22.55;13.20;;;9.70;99.90;;;-144.05;43.02;56929.53;5059694;28;20037;-81
2023/04/10 06:32:30;;;;;;;20.83;12.05;;;10.30;99.90;;;-144.05;41.70;56891.31;5059886;28;20035;-84
2023/04/10 06:34:56;;;;;;;17.17;11.73;;;10.70;99.90;;;-144.05;41.10;56910.44;5042010;28;20029;-84
2023/04/10 06:37:31;;;;;;;18.20;11.00;;;11.00;99.90;;;-144.05;40.03;56910.44;5058425;28;20028;-82
2023/04/10 06:40:08;;;;;;;19.15;11.68;;;11.30;99.90;;;-144.05;40.74;56908.31;5054370;28;20079;-83
2023/04/10 06:42:34;;;;;;;21.13;10.27;;;11.50;99.90;;;-144.05;40.17;56887.06;5053590;28;20052;-81
2023/04/10 06:45:00;;;;;;;15.25;10.25;;;11.80;99.90;;;-144.05;39.89;56880.69;5054108;28;20032;-81
2023/04/10 06:47:27;;;;;;;15.00;9.63;;;11.80;99.90;;;-144.05;40.21;56889.19;5054665;28;20082;-81
2023/04/10 06:49:53;;;;;;;17.27;10.48;;;11.90;99.90;;;-144.05;40.64;56931.66;5053055;28;20040;-81
2023/04/10 06:52:19;;;;;;;15.18;9.60;;;11.80;99.90;;;-144.05;40.14;56897.69;5054379;28;20048;-79
2023/04/10 06:54:45;;;;;;;12.52;8.90;;;11.80;99.90;;;-144.05;40.48;56895.56;5054409;28;20065;-82
2023/04/10 06:57:11;;;;;;;12.85;8.52;;;11.80;99.90;;;-144.05;40.05;56901.94;5054127;28;20031;-81
2023/04/10 06:59:36;;;;;;;14.35;8.68;;;11.80;99.90;;;-144.05;40.36;56940.16;5035726;28;20036;-83
2023/04/10 07:02:03;;;;;;;12.90;8.13;;;11.80;99.90;;;-144.05;39.84;56891.31;5053978;28;20099;-80
2023/04/10 07:04:31;;;;;;;9.57;7.07;;;11.80;99.90;;;-144.05;39.62;56912.56;5054023;28;20077;-83
2023/04/10 07:06:57;;;;;;;9.48;7.25;;;11.80;99.90;;;-144.05;39.93;56891.31;5054343;28;20056;-81
2023/04/10 07:09:26;;;;;;;9.65;6.97;;;12.00;99.90;;;-144.05;39.05;56893.44;5057623;28;20062;-82
2023/04/10 07:11:52;;;;;;;9.88;6.22;;;12.10;99.90;;;-144.05;38.48;56912.56;5039388;28;20032;-82
2023/04/10 07:14:18;;;;;;;9.02;5.93;;;12.20;99.90;;;-144.05;38.87;56889.19;5055715;28;20029;-81
2023/04/10 07:16:44;;;;;;;9.95;6.53;;;12.40;99.90;;;-144.05;37.86;56874.31;5038152;28;20417;-82
2023/04/10 07:19:11;;;;;;;9.65;6.28;;;12.60;99.90;;;-144.05;37.92;56901.94;5055714;28;20072;-80
2023/04/10 07:21:37;;;;;;;10.10;6.43;;;12.90;99.90;;;-144.05;37.53;56882.81;5056418;28;20029;-80
2023/04/10 07:24:03;;;;;;;7.65;5.35;;;13.20;99.90;;;-144.05;36.61;56897.69;5053718;28;20055;-80
2023/04/10 07:26:29;;;;;;;7.45;5.50;;;13.40;99.00;;;-144.05;36.55;56897.69;5036994;28;20033;-80
2023/04/10 07:28:54;;;;;;;7.15;5.40;;;13.50;99.40;;;-144.05;35.66;56887.06;5040178;28;20064;-79
2023/04/10 07:31:20;;;;;;;6.93;5.43;;;13.70;97.30;;;-144.05;35.24;56895.56;5059201;28;20035;-82
2023/04/10 07:33:46;;;;;;;7.53;4.80;;;13.90;95.90;;;-144.05;35.59;56891.31;5054555;28;20032;-81
2023/04/10 07:36:12;;;;;;;6.88;4.97;;;14.00;95.90;;;-144.05;34.91;56891.31;5054173;28;20420;-84
2023/04/10 07:38:38;;;;;;;6.72;4.65;;;14.00;94.10;;;-144.05;35.33;56889.19;5037427;28;20029;-82
2023/04/10 07:41:05;;;;;;;5.72;4.35;;;14.20;94.60;;;-144.05;34.24;56891.31;5037877;28;20032;-83
2023/04/10 07:43:31;;;;;;;5.65;4.32;;;14.20;91.60;;;-144.05;34.22;56891.31;5036769;28;20025;-84
2023/04/10 07:45:57;;;;;;;4.85;3.88;;;14.40;91.90;;;-144.05;34.22;56895.56;5055493;28;20025;-82
2023/04/10 07:48:23;;;;;;;3.97;3.42;;;14.40;91.00;;;-144.05;33.67;56897.69;5036909;28;20033;-82
2023/04/10 07:50:49;;;;;;;5.90;3.90;;;14.50;89.50;;;-144.05;33.53;56878.56;5055640;28;20116;-83
2023/04/10 07:53:15;;;;;;;4.72;3.58;;;14.40;87.00;;;-144.05;33.61;56906.19;5056064;28;20039;-82
2023/04/10 07:55:48;;;;;;;4.45;3.42;;;14.10;86.20;;;-144.05;34.11;56891.31;5055749;28;20039;-84
2023/04/10 07:58:15;;;;;;;4.80;3.65;;;14.10;88.30;;;-144.05;33.89;56891.31;5055485;28;20377;-81
2023/04/10 08:00:41;;;;;;;5.10;3.70;;;14.30;88.20;;;-144.05;33.70;56897.69;5056116;28;20124;-83
2023/04/10 08:03:07;;;;;;;4.22;3.03;;;14.30;85.50;;;-144.05;32.93;56887.06;5038620;28;20028;-84
2023/04/10 08:05:33;;;;;;;4.93;3.38;;;14.50;82.60;;;-144.05;32.60;56893.44;5056039;28;20124;-82
2023/04/10 08:07:59;;;;;;;4.72;3.63;;;14.60;83.40;;;-144.05;32.74;56893.44;5038961;28;20438;-82
2023/04/10 08:10:25;;;;;;;4.90;3.50;;;14.70;81.60;;;-144.05;32.41;56880.69;5057819;28;20089;-83
2023/04/10 08:12:51;;;;;;;4.55;3.20;;;14.90;81.40;;;-144.05;32.69;56889.19;5058288;28;20497;-83
2023/04/10 08:15:17;;;;;;;4.60;3.35;;;14.90;81.80;;;-144.05;31.89;56878.56;5039847;28;20025;-84
2023/04/10 08:17:43;;;;;;;6.55;3.63;;;14.90;78.10;;;-144.05;32.15;56887.06;5040134;28;20565;-86
2023/04/10 08:20:11;;;;;;;5.13;3.40;;;14.90;77.70;;;-144.05;32.38;56906.19;5059734;28;20099;-85
2023/04/10 08:22:37;;;;;;;4.22;3.25;;;15.00;77.70;;;-144.05;31.80;56914.69;5053917;28;20029;-79
2023/04/10 08:25:05;;;;;;;4.22;3.78;;;14.70;75.80;;;-144.05;32.42;56887.06;5047820;28;20233;-83
2023/04/10 08:27:31;;;;;;;5.07;3.50;;;14.40;76.20;;;-144.05;32.17;56867.94;5060534;28;20036;-81
2023/04/10 08:29:56;;;;;;;3.88;3.40;;;14.20;76.90;;;-144.05;32.07;56908.31;5059476;28;20039;-80
2023/04/10 08:32:25;;;;;;;4.40;3.45;;;14.40;77.50;;;-144.05;32.15;56878.56;5043943;28;20030;-80
2023/04/10 08:34:51;;;;;;;5.65;3.83;;;14.90;76.90;;;-144.05;32.03;56884.94;5041232;28;20162;-81
2023/04/10 08:37:18;;;;;;;4.10;3.38;;;15.20;76.20;;;-144.05;31.71;56889.19;5038111;28;20092;-82
2023/04/10 08:39:44;;;;;;;4.30;3.42;;;15.30;74.80;;;-144.05;31.31;56887.06;5055816;28;20112;-83
2023/04/10 08:42:10;;;;;;;3.63;3.15;;;15.60;74.20;;;-144.05;31.95;56895.56;5056726;28;20501;-83
2023/04/10 08:44:36;;;;;;;4.25;3.00;;;16.00;76.00;;;-144.05;30.63;56908.31;5057605;28;20040;-82
2023/04/10 08:47:04;;;;;;;5.43;3.35;;;15.80;71.30;;;-144.05;31.64;56908.31;5060414;28;20044;-84
2023/04/10 08:49:47;;;;;;;6.07;2.90;;;16.10;74.80;;;-144.05;30.32;56882.81;5044328;28;20083;-80
2023/04/10 08:52:21;;;;;;;3.67;2.75;;;16.20;70.30;;;-144.05;30.32;56906.19;5065350;28;20029;-81
2023/04/10 08:54:54;;;;;;;3.25;2.70;;;16.20;69.80;;;-144.05;30.08;56891.31;5045778;28;20564;-81
2023/04/10 08:57:21;;;;;;;4.25;3.28;;;16.20;69.50;;;-144.05;30.14;56891.31;5061173;28;20078;-82
2023/04/10 08:59:50;;;;;;;3.17;2.58;;;16.00;68.50;;;-144.05;30.12;56891.31;5043406;28;20024;-79
2023/04/10 09:02:17;;;;;;;6.25;2.95;;;16.10;68.50;;;-144.05;29.98;56914.69;5061402;28;20135;-83
2023/04/10 09:04:50;;;;;;;3.60;2.95;;;16.20;67.30;;;-144.05;30.12;56893.44;5061862;28;20404;-84
2023/04/10 09:07:17;;;;;;;3.72;2.92;;;16.00;67.70;;;-144.05;30.43;56884.94;5061679;28;20029;-82
2023/04/10 09:09:44;;;;;;;3.38;2.80;;;16.20;68.90;;;-144.05;29.79;56904.06;5063785;28;20117;-83
2023/04/10 09:12:12;;;;;;;3.60;2.45;;;16.30;66.40;;;-144.05;30.42;56897.69;5064900;28;20040;-81
2023/04/10 09:14:41;;;;;;;3.13;2.50;;;16.40;67.50;;;-144.05;29.69;56889.19;5066378;28;20029;-83
2023/04/10 09:17:24;;;;;;;2.92;2.53;;;16.30;65.40;;;-144.05;29.58;56893.44;5066304;28;20021;-83
2023/04/10 09:19:55;;;;;;;5.20;2.80;;;16.70;66.70;;;-144.05;29.05;56891.31;5064217;28;20058;-82
2023/04/10 09:22:34;;;;;;;3.72;3.00;;;16.80;63.50;;;-144.05;29.07;56901.94;5065263;28;20017;-82
2023/04/10 09:25:03;;;;;;;3.13;2.45;;;16.50;62.80;;;-144.05;29.42;56870.06;5065887;28;20028;-83
2023/04/10 09:27:36;;;;;;;3.85;2.30;;;16.40;64.00;;;-144.05;29.04;56884.94;5047467;28;20119;-84
2023/04/10 09:30:03;;;;;;;2.60;2.10;;;16.60;64.40;;;-144.05;29.84;56865.81;5065723;28;20051;-82
2023/04/10 09:32:43;;;;;;;3.38;2.75;;;16.50;64.60;;;-144.05;30.23;56901.94;5051163;28;20029;-81
2023/04/10 09:35:13;;;;;;;2.85;2.50;;;16.30;65.30;;;-144.05;29.79;56910.44;5068403;28;20025;-79
2023/04/10 09:37:43;;;;;;;3.20;2.30;;;16.50;65.10;;;-144.05;29.52;56867.94;5052449;28;20069;-81
2023/04/10 09:40:25;;;;;;;3.00;2.20;;;16.70;64.90;;;-144.05;29.67;56906.19;5066927;28;20032;-82
2023/04/10 09:42:52;;;;;;;2.92;2.33;;;16.70;63.80;;;-144.05;29.81;56895.56;5051361;28;20025;-82
2023/04/10 09:45:19;;;;;;;3.10;2.47;;;16.70;64.90;;;-144.05;29.30;56904.06;5045711;28;20056;-82
2023/04/10 09:48:06;;;;;;;3.85;2.30;;;16.70;63.80;;;-144.05;29.62;56912.56;5046743;28;20025;-82
2023/04/10 09:50:39;;;;;;;3.38;2.40;;;16.80;65.30;;;-144.05;29.08;56931.66;5048264;28;20029;-84
2023/04/10 09:53:09;;;;;;;3.85;2.60;;;17.00;63.50;;;-144.05;29.39;56891.31;5047303;28;20025;-80
2023/04/10 09:55:36;;;;;;;3.65;2.33;;;17.10;64.90;;;-144.05;29.39;56865.81;5064201;28;20078;-81
2023/04/10 09:58:05;;;;;;;3.05;2.33;;;17.00;64.00;;;-144.05;29.33;56918.94;5062562;28;20033;-82
2023/04/10 10:00:46;;;;;;;4.05;2.75;;;17.00;64.20;;;-144.05;29.32;56882.81;5062570;28;20025;-81
2023/04/10 10:03:19;;;;;;;2.75;2.40;;;17.00;64.40;;;-144.05;29.46;56925.28;5062341;28;20515;-82
2023/04/10 10:05:50;;;;;;;3.08;2.38;;;16.90;63.00;;;-144.05;29.44;56899.81;5065702;28;20029;-82
2023/04/10 10:08:16;;;;;;;2.65;2.42;;;17.10;63.60;;;-144.05;29.53;56906.19;5065260;28;20481;-81